<?xml version="1.0" encoding="utf-8"?>
<gpx xmlns:xsi="http://www.w3.org/2001/XMLSchema-instance" xmlns:xsd="http://www.w3.org/2001/XMLSchema" version="1.1" creator="Shapelink.com" xmlns="http://www.topografix.com/GPX/1/1" xmlns:gpxtpx="http://www.garmin.com/xmlschemas/TrackPointExtension/v1">
  <metadata>
    <name>Löpning 5.02 km, 2020-07-11</name>
    <desc></desc>
    <author><name>Marian Moron</name></author> 
    <time>2020-07-11T11:21:23Z</time>
  </metadata>
  <trk>
    <name>Löpning 5.02 km, 2020-07-11</name>
    <trkseg>
      <trkpt lat="51.216383987767" lon="4.480346245427">
        <ele>0</ele>
        <time>2020-07-11T11:21:23Z</time>
      </trkpt>
      <trkpt lat="51.216204279831" lon="4.480307688687">
        <ele>0</ele>
        <time>2020-07-11T11:21:30Z</time>
      </trkpt>
      <trkpt lat="51.216118532994" lon="4.480043575018">
        <ele>0</ele>
        <time>2020-07-11T11:21:38Z</time>
      </trkpt>
      <trkpt lat="51.216106211601" lon="4.479759177151">
        <ele>0</ele>
        <time>2020-07-11T11:21:46Z</time>
      </trkpt>
      <trkpt lat="51.216107301248" lon="4.479457093475">
        <ele>0</ele>
        <time>2020-07-11T11:21:54Z</time>
      </trkpt>
      <trkpt lat="51.216001437851" lon="4.479235476039">
        <ele>0</ele>
        <time>2020-07-11T11:22:01Z</time>
      </trkpt>
      <trkpt lat="51.215841595018" lon="4.47906607784">
        <ele>0</ele>
        <time>2020-07-11T11:22:09Z</time>
      </trkpt>
      <trkpt lat="51.215659288693" lon="4.47896717142">
        <ele>0</ele>
        <time>2020-07-11T11:22:17Z</time>
      </trkpt>
      <trkpt lat="51.215527022311" lon="4.478857536168">
        <ele>0</ele>
        <time>2020-07-11T11:22:23Z</time>
      </trkpt>
      <trkpt lat="51.215583767774" lon="4.478591913757">
        <ele>0</ele>
        <time>2020-07-11T11:22:30Z</time>
      </trkpt>
      <trkpt lat="51.215711675568" lon="4.478371134511">
        <ele>0</ele>
        <time>2020-07-11T11:22:38Z</time>
      </trkpt>
      <trkpt lat="51.215826591417" lon="4.478122694995">
        <ele>0</ele>
        <time>2020-07-11T11:22:46Z</time>
      </trkpt>
      <trkpt lat="51.215956007953" lon="4.477903173034">
        <ele>0</ele>
        <time>2020-07-11T11:22:54Z</time>
      </trkpt>
      <trkpt lat="51.216094393122" lon="4.477713658275">
        <ele>0</ele>
        <time>2020-07-11T11:23:02Z</time>
      </trkpt>
      <trkpt lat="51.216262869312" lon="4.477615506226">
        <ele>0</ele>
        <time>2020-07-11T11:23:10Z</time>
      </trkpt>
      <trkpt lat="51.216456742659" lon="4.47756320317">
        <ele>0</ele>
        <time>2020-07-11T11:23:18Z</time>
      </trkpt>
      <trkpt lat="51.216637288785" lon="4.477568483767">
        <ele>0</ele>
        <time>2020-07-11T11:23:26Z</time>
      </trkpt>
      <trkpt lat="51.216831497408" lon="4.477537554556">
        <ele>0</ele>
        <time>2020-07-11T11:23:36Z</time>
      </trkpt>
      <trkpt lat="51.217022101814" lon="4.477535794357">
        <ele>0</ele>
        <time>2020-07-11T11:23:46Z</time>
      </trkpt>
      <trkpt lat="51.217150177246" lon="4.477337059508">
        <ele>0</ele>
        <time>2020-07-11T11:23:56Z</time>
      </trkpt>
      <trkpt lat="51.217223099776" lon="4.477059031885">
        <ele>0</ele>
        <time>2020-07-11T11:24:08Z</time>
      </trkpt>
      <trkpt lat="51.217228212735" lon="4.476741357875">
        <ele>0</ele>
        <time>2020-07-11T11:24:18Z</time>
      </trkpt>
      <trkpt lat="51.217232152228" lon="4.476446147357">
        <ele>0</ele>
        <time>2020-07-11T11:24:26Z</time>
      </trkpt>
      <trkpt lat="51.217251095322" lon="4.476136184695">
        <ele>0</ele>
        <time>2020-07-11T11:24:36Z</time>
      </trkpt>
      <trkpt lat="51.217282443628" lon="4.475827227861">
        <ele>0</ele>
        <time>2020-07-11T11:24:45Z</time>
      </trkpt>
      <trkpt lat="51.217307254052" lon="4.475523467805">
        <ele>0</ele>
        <time>2020-07-11T11:24:53Z</time>
      </trkpt>
      <trkpt lat="51.217314294848" lon="4.475214175695">
        <ele>0</ele>
        <time>2020-07-11T11:25:01Z</time>
      </trkpt>
      <trkpt lat="51.217325107499" lon="4.474896753142">
        <ele>0</ele>
        <time>2020-07-11T11:25:09Z</time>
      </trkpt>
      <trkpt lat="51.217329298449" lon="4.474571619241">
        <ele>0</ele>
        <time>2020-07-11T11:25:17Z</time>
      </trkpt>
      <trkpt lat="51.217336423064" lon="4.474247574987">
        <ele>0</ele>
        <time>2020-07-11T11:25:25Z</time>
      </trkpt>
      <trkpt lat="51.217347738629" lon="4.473925710027">
        <ele>0</ele>
        <time>2020-07-11T11:25:33Z</time>
      </trkpt>
      <trkpt lat="51.217381769143" lon="4.473623542532">
        <ele>0</ele>
        <time>2020-07-11T11:25:41Z</time>
      </trkpt>
      <trkpt lat="51.217383110247" lon="4.473305617065">
        <ele>0</ele>
        <time>2020-07-11T11:25:48Z</time>
      </trkpt>
      <trkpt lat="51.21736860956" lon="4.47300261138">
        <ele>0</ele>
        <time>2020-07-11T11:25:56Z</time>
      </trkpt>
      <trkpt lat="51.217352013398" lon="4.472709831613">
        <ele>0</ele>
        <time>2020-07-11T11:26:04Z</time>
      </trkpt>
      <trkpt lat="51.217368441922" lon="4.472399868951">
        <ele>0</ele>
        <time>2020-07-11T11:26:11Z</time>
      </trkpt>
      <trkpt lat="51.217379254573" lon="4.472105664261">
        <ele>0</ele>
        <time>2020-07-11T11:26:17Z</time>
      </trkpt>
      <trkpt lat="51.217381852962" lon="4.471796120694">
        <ele>0</ele>
        <time>2020-07-11T11:26:24Z</time>
      </trkpt>
      <trkpt lat="51.217406411929" lon="4.471482050901">
        <ele>0</ele>
        <time>2020-07-11T11:26:31Z</time>
      </trkpt>
      <trkpt lat="51.217430551801" lon="4.471196563387">
        <ele>0</ele>
        <time>2020-07-11T11:26:39Z</time>
      </trkpt>
      <trkpt lat="51.217461983926" lon="4.470884672888">
        <ele>0</ele>
        <time>2020-07-11T11:26:47Z</time>
      </trkpt>
      <trkpt lat="51.217486123798" lon="4.470588372723">
        <ele>0</ele>
        <time>2020-07-11T11:26:54Z</time>
      </trkpt>
      <trkpt lat="51.217496768811" lon="4.470291485825">
        <ele>0</ele>
        <time>2020-07-11T11:27:01Z</time>
      </trkpt>
      <trkpt lat="51.21751445462" lon="4.469972051616">
        <ele>0</ele>
        <time>2020-07-11T11:27:09Z</time>
      </trkpt>
      <trkpt lat="51.21752367471" lon="4.469662675687">
        <ele>0</ele>
        <time>2020-07-11T11:27:16Z</time>
      </trkpt>
      <trkpt lat="51.217514286982" lon="4.469349611722">
        <ele>0</ele>
        <time>2020-07-11T11:27:23Z</time>
      </trkpt>
      <trkpt lat="51.217458379709" lon="4.469027495305">
        <ele>0</ele>
        <time>2020-07-11T11:27:29Z</time>
      </trkpt>
      <trkpt lat="51.217494254241" lon="4.468530700092">
        <ele>0</ele>
        <time>2020-07-11T11:27:38Z</time>
      </trkpt>
      <trkpt lat="51.217503641969" lon="4.46822073743">
        <ele>0</ele>
        <time>2020-07-11T11:27:45Z</time>
      </trkpt>
      <trkpt lat="51.217515628086" lon="4.468156364438">
        <ele>0</ele>
        <time>2020-07-11T11:27:51Z</time>
      </trkpt>
      <trkpt lat="51.217482938676" lon="4.468482001253">
        <ele>0</ele>
        <time>2020-07-11T11:27:59Z</time>
      </trkpt>
      <trkpt lat="51.217488135454" lon="4.46880327948">
        <ele>0</ele>
        <time>2020-07-11T11:28:06Z</time>
      </trkpt>
      <trkpt lat="51.21750523453" lon="4.469107458631">
        <ele>0</ele>
        <time>2020-07-11T11:28:13Z</time>
      </trkpt>
      <trkpt lat="51.217506407996" lon="4.469144758086">
        <ele>0</ele>
        <time>2020-07-11T11:28:14Z</time>
      </trkpt>
      <trkpt lat="51.217526943651" lon="4.469179710609">
        <ele>0</ele>
        <time>2020-07-11T11:31:04Z</time>
      </trkpt>
      <trkpt lat="51.21752199833" lon="4.469153894357">
        <ele>0</ele>
        <time>2020-07-11T11:31:05Z</time>
      </trkpt>
      <trkpt lat="51.217476233156" lon="4.468847284455">
        <ele>0</ele>
        <time>2020-07-11T11:31:12Z</time>
      </trkpt>
      <trkpt lat="51.217487464902" lon="4.468541931838">
        <ele>0</ele>
        <time>2020-07-11T11:31:17Z</time>
      </trkpt>
      <trkpt lat="51.217507413824" lon="4.468254516487">
        <ele>0</ele>
        <time>2020-07-11T11:31:23Z</time>
      </trkpt>
      <trkpt lat="51.217524261443" lon="4.467961820539">
        <ele>0</ele>
        <time>2020-07-11T11:31:31Z</time>
      </trkpt>
      <trkpt lat="51.217558711052" lon="4.467639536484">
        <ele>0</ele>
        <time>2020-07-11T11:31:40Z</time>
      </trkpt>
      <trkpt lat="51.217607745167" lon="4.467323622673">
        <ele>0</ele>
        <time>2020-07-11T11:31:48Z</time>
      </trkpt>
      <trkpt lat="51.217654097074" lon="4.467025059395">
        <ele>0</ele>
        <time>2020-07-11T11:31:56Z</time>
      </trkpt>
      <trkpt lat="51.217685026285" lon="4.466720125873">
        <ele>0</ele>
        <time>2020-07-11T11:32:05Z</time>
      </trkpt>
      <trkpt lat="51.217680667697" lon="4.46640102694">
        <ele>0</ele>
        <time>2020-07-11T11:32:15Z</time>
      </trkpt>
      <trkpt lat="51.21766113787" lon="4.466092740658">
        <ele>0</ele>
        <time>2020-07-11T11:32:23Z</time>
      </trkpt>
      <trkpt lat="51.21769550366" lon="4.465809851533">
        <ele>0</ele>
        <time>2020-07-11T11:32:30Z</time>
      </trkpt>
      <trkpt lat="51.217706232492" lon="4.465522184725">
        <ele>0</ele>
        <time>2020-07-11T11:32:37Z</time>
      </trkpt>
      <trkpt lat="51.217695168384" lon="4.465222196524">
        <ele>0</ele>
        <time>2020-07-11T11:32:45Z</time>
      </trkpt>
      <trkpt lat="51.217683182267" lon="4.464918520287">
        <ele>0</ele>
        <time>2020-07-11T11:32:53Z</time>
      </trkpt>
      <trkpt lat="51.217700700438" lon="4.464596571508">
        <ele>0</ele>
        <time>2020-07-11T11:33:01Z</time>
      </trkpt>
      <trkpt lat="51.217724421215" lon="4.464278310765">
        <ele>0</ele>
        <time>2020-07-11T11:33:09Z</time>
      </trkpt>
      <trkpt lat="51.217740263006" lon="4.463962145497">
        <ele>0</ele>
        <time>2020-07-11T11:33:17Z</time>
      </trkpt>
      <trkpt lat="51.217762642679" lon="4.463658888355">
        <ele>0</ele>
        <time>2020-07-11T11:33:24Z</time>
      </trkpt>
      <trkpt lat="51.217778149194" lon="4.463370048081">
        <ele>0</ele>
        <time>2020-07-11T11:33:32Z</time>
      </trkpt>
      <trkpt lat="51.217778400651" lon="4.463055559193">
        <ele>0</ele>
        <time>2020-07-11T11:33:40Z</time>
      </trkpt>
      <trkpt lat="51.217809916595" lon="4.462748530196">
        <ele>0</ele>
        <time>2020-07-11T11:33:48Z</time>
      </trkpt>
      <trkpt lat="51.217825758386" lon="4.462462623587">
        <ele>0</ele>
        <time>2020-07-11T11:33:55Z</time>
      </trkpt>
      <trkpt lat="51.217813353174" lon="4.462141177722">
        <ele>0</ele>
        <time>2020-07-11T11:34:03Z</time>
      </trkpt>
      <trkpt lat="51.217849311525" lon="4.461840099874">
        <ele>0</ele>
        <time>2020-07-11T11:34:11Z</time>
      </trkpt>
      <trkpt lat="51.217838750331" lon="4.461650920391">
        <ele>0</ele>
        <time>2020-07-11T11:34:16Z</time>
      </trkpt>
      <trkpt lat="51.217864901859" lon="4.461097044439">
        <ele>0</ele>
        <time>2020-07-11T11:35:38Z</time>
      </trkpt>
      <trkpt lat="51.217909745024" lon="4.460803761758">
        <ele>0</ele>
        <time>2020-07-11T11:35:49Z</time>
      </trkpt>
      <trkpt lat="51.21794863704" lon="4.460498409141">
        <ele>0</ele>
        <time>2020-07-11T11:35:58Z</time>
      </trkpt>
      <trkpt lat="51.217966322849" lon="4.460184255529">
        <ele>0</ele>
        <time>2020-07-11T11:36:06Z</time>
      </trkpt>
      <trkpt lat="51.217965652297" lon="4.459879824921">
        <ele>0</ele>
        <time>2020-07-11T11:36:14Z</time>
      </trkpt>
      <trkpt lat="51.217982499916" lon="4.459582602747">
        <ele>0</ele>
        <time>2020-07-11T11:36:21Z</time>
      </trkpt>
      <trkpt lat="51.217994821309" lon="4.459264090547">
        <ele>0</ele>
        <time>2020-07-11T11:36:29Z</time>
      </trkpt>
      <trkpt lat="51.217988115789" lon="4.45894867965">
        <ele>0</ele>
        <time>2020-07-11T11:36:37Z</time>
      </trkpt>
      <trkpt lat="51.217983421925" lon="4.458643243214">
        <ele>0</ele>
        <time>2020-07-11T11:36:44Z</time>
      </trkpt>
      <trkpt lat="51.218025499063" lon="4.458341997728">
        <ele>0</ele>
        <time>2020-07-11T11:36:51Z</time>
      </trkpt>
      <trkpt lat="51.218040586483" lon="4.458047290124">
        <ele>0</ele>
        <time>2020-07-11T11:36:59Z</time>
      </trkpt>
      <trkpt lat="51.218043520148" lon="4.457758282212">
        <ele>0</ele>
        <time>2020-07-11T11:37:06Z</time>
      </trkpt>
      <trkpt lat="51.218017033344" lon="4.457453600147">
        <ele>0</ele>
        <time>2020-07-11T11:37:13Z</time>
      </trkpt>
      <trkpt lat="51.218039915931" lon="4.457137267241">
        <ele>0</ele>
        <time>2020-07-11T11:37:21Z</time>
      </trkpt>
      <trkpt lat="51.218074281721" lon="4.456820599059">
        <ele>0</ele>
        <time>2020-07-11T11:37:28Z</time>
      </trkpt>
      <trkpt lat="51.218087860399" lon="4.456503427963">
        <ele>0</ele>
        <time>2020-07-11T11:37:35Z</time>
      </trkpt>
      <trkpt lat="51.218123986388" lon="4.456208552721">
        <ele>0</ele>
        <time>2020-07-11T11:37:43Z</time>
      </trkpt>
      <trkpt lat="51.218117616144" lon="4.455758277053">
        <ele>0</ele>
        <time>2020-07-11T11:37:53Z</time>
      </trkpt>
      <trkpt lat="51.218131949193" lon="4.455469939693">
        <ele>0</ele>
        <time>2020-07-11T11:38:00Z</time>
      </trkpt>
      <trkpt lat="51.218158771273" lon="4.45516006085">
        <ele>0</ele>
        <time>2020-07-11T11:38:08Z</time>
      </trkpt>
      <trkpt lat="51.218191293045" lon="4.454875662983">
        <ele>0</ele>
        <time>2020-07-11T11:38:15Z</time>
      </trkpt>
      <trkpt lat="51.218225994111" lon="4.454566119416">
        <ele>0</ele>
        <time>2020-07-11T11:38:22Z</time>
      </trkpt>
      <trkpt lat="51.21822272517" lon="4.454247607216">
        <ele>0</ele>
        <time>2020-07-11T11:38:30Z</time>
      </trkpt>
      <trkpt lat="51.218218115125" lon="4.453918282365">
        <ele>0</ele>
        <time>2020-07-11T11:38:38Z</time>
      </trkpt>
      <trkpt lat="51.218235717115" lon="4.453602033278">
        <ele>0</ele>
        <time>2020-07-11T11:38:45Z</time>
      </trkpt>
      <trkpt lat="51.218219791505" lon="4.453384439154">
        <ele>0</ele>
        <time>2020-07-11T11:38:50Z</time>
      </trkpt>
      <trkpt lat="51.218262706833" lon="4.453154607456">
        <ele>5.2</ele>
        <time>2020-07-11T11:43:44Z</time>
      </trkpt>
      <trkpt lat="51.218254324933" lon="4.453254771161">
        <ele>4.8</ele>
        <time>2020-07-11T11:43:49Z</time>
      </trkpt>
      <trkpt lat="51.218237980228" lon="4.453544114349">
        <ele>3</ele>
        <time>2020-07-11T11:43:58Z</time>
      </trkpt>
      <trkpt lat="51.218223311903" lon="4.453829098949">
        <ele>0</ele>
        <time>2020-07-11T11:44:06Z</time>
      </trkpt>
      <trkpt lat="51.218216690202" lon="4.454143001104">
        <ele>0</ele>
        <time>2020-07-11T11:44:13Z</time>
      </trkpt>
      <trkpt lat="51.218185425715" lon="4.45445681944">
        <ele>0.8</ele>
        <time>2020-07-11T11:44:19Z</time>
      </trkpt>
      <trkpt lat="51.218163548956" lon="4.454750772673">
        <ele>0.2</ele>
        <time>2020-07-11T11:44:26Z</time>
      </trkpt>
      <trkpt lat="51.218148880631" lon="4.455041205508">
        <ele>0.4</ele>
        <time>2020-07-11T11:44:33Z</time>
      </trkpt>
      <trkpt lat="51.218152065753" lon="4.455342618632">
        <ele>0</ele>
        <time>2020-07-11T11:44:42Z</time>
      </trkpt>
      <trkpt lat="51.218134631401" lon="4.455644786127">
        <ele>0</ele>
        <time>2020-07-11T11:44:49Z</time>
      </trkpt>
      <trkpt lat="51.218108396054" lon="4.455928513442">
        <ele>0</ele>
        <time>2020-07-11T11:44:55Z</time>
      </trkpt>
      <trkpt lat="51.218076712472" lon="4.456243505244">
        <ele>0</ele>
        <time>2020-07-11T11:45:02Z</time>
      </trkpt>
      <trkpt lat="51.218074281721" lon="4.456555982476">
        <ele>0</ele>
        <time>2020-07-11T11:45:11Z</time>
      </trkpt>
      <trkpt lat="51.218048465469" lon="4.456849684252">
        <ele>1.4</ele>
        <time>2020-07-11T11:45:18Z</time>
      </trkpt>
      <trkpt lat="51.218031282574" lon="4.457148834263">
        <ele>0.2</ele>
        <time>2020-07-11T11:45:26Z</time>
      </trkpt>
      <trkpt lat="51.218003454666" lon="4.45746508335">
        <ele>0</ele>
        <time>2020-07-11T11:45:34Z</time>
      </trkpt>
      <trkpt lat="51.217991300911" lon="4.457762724619">
        <ele>0.6</ele>
        <time>2020-07-11T11:45:42Z</time>
      </trkpt>
      <trkpt lat="51.217977638414" lon="4.458085427769">
        <ele>3</ele>
        <time>2020-07-11T11:45:49Z</time>
      </trkpt>
      <trkpt lat="51.217968837419" lon="4.458394300784">
        <ele>5</ele>
        <time>2020-07-11T11:45:57Z</time>
      </trkpt>
      <trkpt lat="51.217980655898" lon="4.458706694197">
        <ele>0.2</ele>
        <time>2020-07-11T11:46:06Z</time>
      </trkpt>
      <trkpt lat="51.217990295083" lon="4.459026379863">
        <ele>1.2</ele>
        <time>2020-07-11T11:46:14Z</time>
      </trkpt>
      <trkpt lat="51.217964395012" lon="4.459322931485">
        <ele>1.2</ele>
        <time>2020-07-11T11:46:21Z</time>
      </trkpt>
      <trkpt lat="51.217941512425" lon="4.459646472825">
        <ele>4.8</ele>
        <time>2020-07-11T11:46:29Z</time>
      </trkpt>
      <trkpt lat="51.217902620409" lon="4.459945706655">
        <ele>1.4</ele>
        <time>2020-07-11T11:46:37Z</time>
      </trkpt>
      <trkpt lat="51.217859621262" lon="4.46023865406">
        <ele>0</ele>
        <time>2020-07-11T11:46:44Z</time>
      </trkpt>
      <trkpt lat="51.217799774496" lon="4.460547359437">
        <ele>0</ele>
        <time>2020-07-11T11:46:51Z</time>
      </trkpt>
      <trkpt lat="51.217768090914" lon="4.46083795991">
        <ele>0</ele>
        <time>2020-07-11T11:46:57Z</time>
      </trkpt>
      <trkpt lat="51.217805809464" lon="4.461154208997">
        <ele>3.2</ele>
        <time>2020-07-11T11:47:03Z</time>
      </trkpt>
      <trkpt lat="51.217797427564" lon="4.461448916601">
        <ele>3.4</ele>
        <time>2020-07-11T11:47:09Z</time>
      </trkpt>
      <trkpt lat="51.217809413681" lon="4.461749742992">
        <ele>6.6</ele>
        <time>2020-07-11T11:47:16Z</time>
      </trkpt>
      <trkpt lat="51.217814945735" lon="4.462050066469">
        <ele>9.4</ele>
        <time>2020-07-11T11:47:24Z</time>
      </trkpt>
      <trkpt lat="51.217806815292" lon="4.462355838181">
        <ele>8.8</ele>
        <time>2020-07-11T11:47:32Z</time>
      </trkpt>
      <trkpt lat="51.217800528867" lon="4.46265264126">
        <ele>8.8</ele>
        <time>2020-07-11T11:47:40Z</time>
      </trkpt>
      <trkpt lat="51.217783597429" lon="4.462957323325">
        <ele>11</ele>
        <time>2020-07-11T11:47:49Z</time>
      </trkpt>
      <trkpt lat="51.217765827801" lon="4.463257143888">
        <ele>10.2</ele>
        <time>2020-07-11T11:47:57Z</time>
      </trkpt>
      <trkpt lat="51.2177340604" lon="4.46355872465">
        <ele>12.2</ele>
        <time>2020-07-11T11:48:05Z</time>
      </trkpt>
      <trkpt lat="51.21771310565" lon="4.463861395059">
        <ele>11.6</ele>
        <time>2020-07-11T11:48:14Z</time>
      </trkpt>
      <trkpt lat="51.217704639931" lon="4.464156857034">
        <ele>8.4</ele>
        <time>2020-07-11T11:48:23Z</time>
      </trkpt>
      <trkpt lat="51.21769801823" lon="4.464460700909">
        <ele>7.6</ele>
        <time>2020-07-11T11:48:31Z</time>
      </trkpt>
      <trkpt lat="51.21767706348" lon="4.465033519955">
        <ele>8.4</ele>
        <time>2020-07-11T11:48:46Z</time>
      </trkpt>
      <trkpt lat="51.217669771227" lon="4.465320851487">
        <ele>9</ele>
        <time>2020-07-11T11:48:52Z</time>
      </trkpt>
      <trkpt lat="51.217664825906" lon="4.465638776954">
        <ele>8.4</ele>
        <time>2020-07-11T11:49:00Z</time>
      </trkpt>
      <trkpt lat="51.217640853672" lon="4.465921749898">
        <ele>5.4</ele>
        <time>2020-07-11T11:49:07Z</time>
      </trkpt>
      <trkpt lat="51.217621491483" lon="4.466223582117">
        <ele>6.4</ele>
        <time>2020-07-11T11:49:14Z</time>
      </trkpt>
      <trkpt lat="51.217605649692" lon="4.466527342173">
        <ele>7.6</ele>
        <time>2020-07-11T11:49:21Z</time>
      </trkpt>
      <trkpt lat="51.217612606669" lon="4.466832527152">
        <ele>7.2</ele>
        <time>2020-07-11T11:49:29Z</time>
      </trkpt>
      <trkpt lat="51.217602883665" lon="4.467160678537">
        <ele>9.6</ele>
        <time>2020-07-11T11:49:37Z</time>
      </trkpt>
      <trkpt lat="51.217592154833" lon="4.467448932078">
        <ele>12.8</ele>
        <time>2020-07-11T11:49:45Z</time>
      </trkpt>
      <trkpt lat="51.217588047702" lon="4.467765684079">
        <ele>9.6</ele>
        <time>2020-07-11T11:49:53Z</time>
      </trkpt>
      <trkpt lat="51.217588969711" lon="4.468083358089">
        <ele>7.4</ele>
        <time>2020-07-11T11:50:00Z</time>
      </trkpt>
      <trkpt lat="51.217563237278" lon="4.4683741262">
        <ele>4.8</ele>
        <time>2020-07-11T11:50:07Z</time>
      </trkpt>
      <trkpt lat="51.217528200936" lon="4.468678472989">
        <ele>6.2</ele>
        <time>2020-07-11T11:50:14Z</time>
      </trkpt>
      <trkpt lat="51.217540270872" lon="4.468977203905">
        <ele>6.8</ele>
        <time>2020-07-11T11:50:22Z</time>
      </trkpt>
      <trkpt lat="51.217528536212" lon="4.469281466875">
        <ele>7.2</ele>
        <time>2020-07-11T11:50:30Z</time>
      </trkpt>
      <trkpt lat="51.217500037752" lon="4.469605846405">
        <ele>5.8</ele>
        <time>2020-07-11T11:50:38Z</time>
      </trkpt>
      <trkpt lat="51.217476568432" lon="4.469904493502">
        <ele>6.4</ele>
        <time>2020-07-11T11:50:46Z</time>
      </trkpt>
      <trkpt lat="51.217432982552" lon="4.470224765901">
        <ele>9.4</ele>
        <time>2020-07-11T11:50:55Z</time>
      </trkpt>
      <trkpt lat="51.217438766063" lon="4.470541098807">
        <ele>14.2</ele>
        <time>2020-07-11T11:51:03Z</time>
      </trkpt>
      <trkpt lat="51.217407250119" lon="4.470825161398">
        <ele>16.4</ele>
        <time>2020-07-11T11:51:10Z</time>
      </trkpt>
      <trkpt lat="51.217377410555" lon="4.471140823752">
        <ele>15</ele>
        <time>2020-07-11T11:51:19Z</time>
      </trkpt>
      <trkpt lat="51.217362406954" lon="4.47142849056">
        <ele>14</ele>
        <time>2020-07-11T11:51:26Z</time>
      </trkpt>
      <trkpt lat="51.217368022827" lon="4.47172101887">
        <ele>8</ele>
        <time>2020-07-11T11:51:34Z</time>
      </trkpt>
      <trkpt lat="51.217370034483" lon="4.47181489615">
        <ele>5.6</ele>
        <time>2020-07-11T11:51:37Z</time>
      </trkpt>
      <trkpt lat="51.217387133559" lon="4.471698639197">
        <ele>0</ele>
        <time>2020-07-11T11:53:44Z</time>
      </trkpt>
      <trkpt lat="51.217383194066" lon="4.472024359831">
        <ele>1</ele>
        <time>2020-07-11T11:53:53Z</time>
      </trkpt>
      <trkpt lat="51.217348912095" lon="4.472341195651">
        <ele>5.2</ele>
        <time>2020-07-11T11:54:00Z</time>
      </trkpt>
      <trkpt lat="51.217339189091" lon="4.47265811529">
        <ele>5.6</ele>
        <time>2020-07-11T11:54:06Z</time>
      </trkpt>
      <trkpt lat="51.21735184576" lon="4.472950224505">
        <ele>5.6</ele>
        <time>2020-07-11T11:54:12Z</time>
      </trkpt>
      <trkpt lat="51.21736777137" lon="4.473243758643">
        <ele>5.8</ele>
        <time>2020-07-11T11:54:19Z</time>
      </trkpt>
      <trkpt lat="51.217372297596" lon="4.473547183423">
        <ele>5</ele>
        <time>2020-07-11T11:54:26Z</time>
      </trkpt>
      <trkpt lat="51.217362490773" lon="4.473855469705">
        <ele>5.6</ele>
        <time>2020-07-11T11:54:33Z</time>
      </trkpt>
      <trkpt lat="51.217331310105" lon="4.474159229761">
        <ele>4</ele>
        <time>2020-07-11T11:54:40Z</time>
      </trkpt>
      <trkpt lat="51.217307589328" lon="4.474473551011">
        <ele>4.4</ele>
        <time>2020-07-11T11:54:48Z</time>
      </trkpt>
      <trkpt lat="51.217306164405" lon="4.474780831465">
        <ele>5.6</ele>
        <time>2020-07-11T11:54:55Z</time>
      </trkpt>
      <trkpt lat="51.217293507736" lon="4.475086184082">
        <ele>5</ele>
        <time>2020-07-11T11:55:02Z</time>
      </trkpt>
      <trkpt lat="51.217277498307" lon="4.475405534472">
        <ele>3.8</ele>
        <time>2020-07-11T11:55:10Z</time>
      </trkpt>
      <trkpt lat="51.217252184969" lon="4.475707953424">
        <ele>2.4</ele>
        <time>2020-07-11T11:55:18Z</time>
      </trkpt>
      <trkpt lat="51.217241707594" lon="4.475995871689">
        <ele>2.4</ele>
        <time>2020-07-11T11:55:25Z</time>
      </trkpt>
      <trkpt lat="51.217221004301" lon="4.476310863491">
        <ele>2.2</ele>
        <time>2020-07-11T11:55:33Z</time>
      </trkpt>
      <trkpt lat="51.217208934365" lon="4.476600374317">
        <ele>2.8</ele>
        <time>2020-07-11T11:55:40Z</time>
      </trkpt>
      <trkpt lat="51.21719426604" lon="4.476925424399">
        <ele>3.8</ele>
        <time>2020-07-11T11:55:48Z</time>
      </trkpt>
      <trkpt lat="51.217183956303" lon="4.477215521958">
        <ele>4.8</ele>
        <time>2020-07-11T11:55:55Z</time>
      </trkpt>
      <trkpt lat="51.217169539435" lon="4.477505032784">
        <ele>5.2</ele>
        <time>2020-07-11T11:56:02Z</time>
      </trkpt>
      <trkpt lat="51.217160235526" lon="4.477808206107">
        <ele>3.6</ele>
        <time>2020-07-11T11:56:10Z</time>
      </trkpt>
      <trkpt lat="51.217162666277" lon="4.478120180425">
        <ele>2.6</ele>
        <time>2020-07-11T11:56:19Z</time>
      </trkpt>
      <trkpt lat="51.217151853626" lon="4.478420168626">
        <ele>2.6</ele>
        <time>2020-07-11T11:56:26Z</time>
      </trkpt>
      <trkpt lat="51.217139951328" lon="4.478735328066">
        <ele>2.4</ele>
        <time>2020-07-11T11:56:33Z</time>
      </trkpt>
      <trkpt lat="51.217118661302" lon="4.479173617617">
        <ele>4.4</ele>
        <time>2020-07-11T11:56:42Z</time>
      </trkpt>
      <trkpt lat="51.217093096507" lon="4.479473270542">
        <ele>4.8</ele>
        <time>2020-07-11T11:56:50Z</time>
      </trkpt>
      <trkpt lat="51.217085804254" lon="4.479788849077">
        <ele>4.2</ele>
        <time>2020-07-11T11:56:58Z</time>
      </trkpt>
      <trkpt lat="51.217077338535" lon="4.48008699326">
        <ele>4.4</ele>
        <time>2020-07-11T11:57:06Z</time>
      </trkpt>
      <trkpt lat="51.217065436237" lon="4.480375582077">
        <ele>5.4</ele>
        <time>2020-07-11T11:57:13Z</time>
      </trkpt>
      <trkpt lat="51.217035345216" lon="4.480659057935">
        <ele>3.6</ele>
        <time>2020-07-11T11:57:20Z</time>
      </trkpt>
      <trkpt lat="51.217021263624" lon="4.480954771367">
        <ele>4.2</ele>
        <time>2020-07-11T11:57:27Z</time>
      </trkpt>
      <trkpt lat="51.217013049362" lon="4.481049403018">
        <ele>4</ele>
        <time>2020-07-11T11:57:29Z</time>
      </trkpt>
      <trkpt lat="51.217003913091" lon="4.480608431259">
        <ele>0.6</ele>
        <time>2020-07-11T12:02:51Z</time>
      </trkpt>
      <trkpt lat="51.217043140383" lon="4.480298384778">
        <ele>0</ele>
        <time>2020-07-11T12:02:59Z</time>
      </trkpt>
      <trkpt lat="51.217068118445" lon="4.480007532848">
        <ele>0</ele>
        <time>2020-07-11T12:03:06Z</time>
      </trkpt>
      <trkpt lat="51.217100807855" lon="4.479699665661">
        <ele>0</ele>
        <time>2020-07-11T12:03:14Z</time>
      </trkpt>
      <trkpt lat="51.21712301989" lon="4.479410238654">
        <ele>0</ele>
        <time>2020-07-11T12:03:21Z</time>
      </trkpt>
      <trkpt lat="51.21712637265" lon="4.479096671775">
        <ele>0</ele>
        <time>2020-07-11T12:03:28Z</time>
      </trkpt>
      <trkpt lat="51.217132407618" lon="4.478786709113">
        <ele>0</ele>
        <time>2020-07-11T12:03:35Z</time>
      </trkpt>
      <trkpt lat="51.217158391508" lon="4.478494851355">
        <ele>0</ele>
        <time>2020-07-11T12:03:42Z</time>
      </trkpt>
      <trkpt lat="51.217179430077" lon="4.478194779335">
        <ele>0</ele>
        <time>2020-07-11T12:03:49Z</time>
      </trkpt>
      <trkpt lat="51.217220752844" lon="4.477891019279">
        <ele>0</ele>
        <time>2020-07-11T12:03:57Z</time>
      </trkpt>
      <trkpt lat="51.217228128916" lon="4.477600418806">
        <ele>0</ele>
        <time>2020-07-11T12:04:04Z</time>
      </trkpt>
      <trkpt lat="51.21722947002" lon="4.477299005682">
        <ele>0</ele>
        <time>2020-07-11T12:04:12Z</time>
      </trkpt>
      <trkpt lat="51.217258136118" lon="4.477029108502">
        <ele>0</ele>
        <time>2020-07-11T12:04:19Z</time>
      </trkpt>
      <trkpt lat="51.217241288499" lon="4.476780249891">
        <ele>0</ele>
        <time>2020-07-11T12:04:54Z</time>
      </trkpt>
      <trkpt lat="51.217239947395" lon="4.476753930725">
        <ele>0</ele>
        <time>2020-07-11T12:04:55Z</time>
      </trkpt>
      <trkpt lat="51.217245479449" lon="4.476462240605">
        <ele>0</ele>
        <time>2020-07-11T12:05:04Z</time>
      </trkpt>
      <trkpt lat="51.217282695085" lon="4.476139705093">
        <ele>0</ele>
        <time>2020-07-11T12:05:12Z</time>
      </trkpt>
      <trkpt lat="51.217333908494" lon="4.475822450178">
        <ele>0</ele>
        <time>2020-07-11T12:05:20Z</time>
      </trkpt>
      <trkpt lat="51.217371627044" lon="4.475509553851">
        <ele>0</ele>
        <time>2020-07-11T12:05:28Z</time>
      </trkpt>
      <trkpt lat="51.217396186011" lon="4.475219372473">
        <ele>0</ele>
        <time>2020-07-11T12:05:35Z</time>
      </trkpt>
      <trkpt lat="51.21741387182" lon="4.474913852218">
        <ele>0</ele>
        <time>2020-07-11T12:05:42Z</time>
      </trkpt>
      <trkpt lat="51.217432563457" lon="4.474621072451">
        <ele>0</ele>
        <time>2020-07-11T12:05:49Z</time>
      </trkpt>
      <trkpt lat="51.217460978098" lon="4.474325945752">
        <ele>0</ele>
        <time>2020-07-11T12:05:56Z</time>
      </trkpt>
      <trkpt lat="51.21745410494" lon="4.474022269515">
        <ele>0</ele>
        <time>2020-07-11T12:06:04Z</time>
      </trkpt>
      <trkpt lat="51.217461983926" lon="4.473712725948">
        <ele>0</ele>
        <time>2020-07-11T12:06:12Z</time>
      </trkpt>
      <trkpt lat="51.217461816288" lon="4.473406032227">
        <ele>1.2</ele>
        <time>2020-07-11T12:06:19Z</time>
      </trkpt>
      <trkpt lat="51.217464582315" lon="4.473099925239">
        <ele>1</ele>
        <time>2020-07-11T12:06:26Z</time>
      </trkpt>
      <trkpt lat="51.217452344741" lon="4.472804044169">
        <ele>0</ele>
        <time>2020-07-11T12:06:33Z</time>
      </trkpt>
      <trkpt lat="51.217470198188" lon="4.472505983805">
        <ele>0</ele>
        <time>2020-07-11T12:06:42Z</time>
      </trkpt>
      <trkpt lat="51.217516801552" lon="4.472223429956">
        <ele>0</ele>
        <time>2020-07-11T12:06:50Z</time>
      </trkpt>
      <trkpt lat="51.217543120718" lon="4.471935427872">
        <ele>0</ele>
        <time>2020-07-11T12:06:58Z</time>
      </trkpt>
      <trkpt lat="51.21753457118" lon="4.471639798259">
        <ele>0</ele>
        <time>2020-07-11T12:07:04Z</time>
      </trkpt>
      <trkpt lat="51.217539013587" lon="4.471424802524">
        <ele>0</ele>
        <time>2020-07-11T12:07:09Z</time>
      </trkpt>
      <trkpt lat="51.217450249266" lon="4.471124646685">
        <ele>3</ele>
        <time>2020-07-11T12:08:47Z</time>
      </trkpt>
      <trkpt lat="51.217483693047" lon="4.470803284639">
        <ele>0.4</ele>
        <time>2020-07-11T12:08:57Z</time>
      </trkpt>
      <trkpt lat="51.217504731616" lon="4.470502122972">
        <ele>0</ele>
        <time>2020-07-11T12:09:05Z</time>
      </trkpt>
      <trkpt lat="51.21750188177" lon="4.470201296581">
        <ele>0</ele>
        <time>2020-07-11T12:09:12Z</time>
      </trkpt>
      <trkpt lat="51.21754295308" lon="4.469898877629">
        <ele>0</ele>
        <time>2020-07-11T12:09:20Z</time>
      </trkpt>
      <trkpt lat="51.217569942798" lon="4.469662340411">
        <ele>0</ele>
        <time>2020-07-11T12:09:27Z</time>
      </trkpt>
      <trkpt lat="51.217567679685" lon="4.469336284501">
        <ele>0</ele>
        <time>2020-07-11T12:11:01Z</time>
      </trkpt>
      <trkpt lat="51.217568853151" lon="4.469314994475">
        <ele>0</ele>
        <time>2020-07-11T12:11:02Z</time>
      </trkpt>
      <trkpt lat="51.21751194005" lon="4.469006289098">
        <ele>0</ele>
        <time>2020-07-11T12:11:11Z</time>
      </trkpt>
      <trkpt lat="51.21747673607" lon="4.468985418167">
        <ele>0</ele>
        <time>2020-07-11T12:11:13Z</time>
      </trkpt>
      <trkpt lat="51.217297866324" lon="4.469121959318">
        <ele>0</ele>
        <time>2020-07-11T12:11:22Z</time>
      </trkpt>
      <trkpt lat="51.217147578857" lon="4.469277275925">
        <ele>0</ele>
        <time>2020-07-11T12:11:30Z</time>
      </trkpt>
      <trkpt lat="51.216900648083" lon="4.469575168651">
        <ele>0</ele>
        <time>2020-07-11T12:11:43Z</time>
      </trkpt>
    </trkseg>
  </trk>
</gpx>